Time;durP1;ratioP1;P1;durP2;ratioP2;P2;SDS_P1;SDS_P2;PMS_P1;PMS_P2;Temp;Humidity;BMP_temperature;BMP_pressure;BME280_temperature;BME280_humidity;BME280_pressure;Samples;Min_cycle;Max_cycle;Signal;HPM_P1;HPM_P2
2024/03/15 00:00:27;;;;;;;5.67;3.13;;;;;;;9.39;100.00;97771.50;4965662;28;20237;-84
2024/03/15 00:02:54;;;;;;;7.10;4.17;;;;;;;9.39;100.00;97768.84;4965765;28;20220;-84
2024/03/15 00:05:21;;;;;;;4.83;3.20;;;;;;;9.36;100.00;97769.91;4965861;28;20230;-84
2024/03/15 00:07:47;;;;;;;5.13;3.27;;;;;;;9.34;100.00;97761.28;4965282;28;20298;-84
2024/03/15 00:10:14;;;;;;;4.93;3.60;;;;;;;9.32;100.00;97767.59;4965377;28;20214;-84
2024/03/15 00:12:41;;;;;;;3.63;3.23;;;;;;;9.32;100.00;97770.25;4963986;28;20309;-84
2024/03/15 00:15:09;;;;;;;7.10;3.83;;;;;;;9.29;100.00;97762.53;4966724;28;20284;-84
2024/03/15 00:17:36;;;;;;;4.47;3.40;;;;;;;9.26;100.00;97763.63;4966421;28;20662;-84
2024/03/15 00:20:02;;;;;;;4.63;3.50;;;;;;;9.22;100.00;97763.91;4965528;28;20215;-84
2024/03/15 00:22:29;;;;;;;4.60;3.20;;;;;;;9.21;100.00;97771.00;4966224;28;20214;-84
2024/03/15 00:24:56;;;;;;;5.47;3.33;;;;;;;9.20;100.00;97765.81;4965964;28;20215;-84
2024/03/15 00:27:22;;;;;;;4.37;3.13;;;;;;;9.18;100.00;97770.38;4965437;28;20244;-84
2024/03/15 00:29:50;;;;;;;5.07;2.80;;;;;;;9.16;100.00;97762.56;4965573;28;20212;-85
2024/03/15 00:32:16;;;;;;;5.37;3.47;;;;;;;9.14;100.00;97761.81;4964176;28;20663;-84
2024/03/15 00:34:43;;;;;;;6.13;3.53;;;;;;;9.16;100.00;97761.69;4965621;28;20253;-85
2024/03/15 00:37:09;;;;;;;4.03;3.00;;;;;;;9.15;100.00;97760.03;4966154;28;20215;-84
2024/03/15 00:39:36;;;;;;;4.87;4.37;;;;;;;9.09;100.00;97763.06;4965260;28;20248;-84
2024/03/15 00:42:03;;;;;;;4.50;3.23;;;;;;;9.09;100.00;97760.44;4965198;28;20235;-85
2024/03/15 00:44:30;;;;;;;6.00;3.60;;;;;;;9.07;100.00;97762.34;4964111;28;20210;-82
2024/03/15 00:46:57;;;;;;;4.20;3.30;;;;;;;9.07;100.00;97757.06;4964165;28;20213;-84
2024/03/15 00:49:24;;;;;;;5.63;3.53;;;;;;;9.05;100.00;97753.72;4964803;28;20213;-84
2024/03/15 00:51:50;;;;;;;6.83;2.97;;;;;;;9.02;100.00;97756.53;4964255;28;20241;-84
2024/03/15 00:54:17;;;;;;;5.00;3.27;;;;;;;9.01;100.00;97752.22;4964363;28;20207;-84
2024/03/15 00:56:44;;;;;;;4.97;3.30;;;;;;;9.00;100.00;97753.19;4964307;28;20244;-85
2024/03/15 00:59:10;;;;;;;6.17;3.77;;;;;;;9.02;100.00;97753.91;4963866;28;20211;-84
2024/03/15 01:01:38;;;;;;;4.83;3.60;;;;;;;8.99;100.00;97756.78;4964264;28;20667;-84
2024/03/15 01:04:05;;;;;;;4.37;3.67;;;;;;;9.02;100.00;97759.19;4965182;28;20221;-84
2024/03/15 01:06:32;;;;;;;7.03;3.60;;;;;;;8.98;100.00;97747.16;4964185;28;20687;-84
2024/03/15 01:08:58;;;;;;;5.63;3.87;;;;;;;8.96;100.00;97754.34;4963902;28;20213;-84
2024/03/15 01:11:25;;;;;;;5.10;3.77;;;;;;;8.93;100.00;97755.38;4963970;28;20245;-84
2024/03/15 01:13:57;;;;;;;6.07;4.00;;;;;;;8.94;100.00;97748.34;4963649;28;20309;-84
2024/03/15 01:16:23;;;;;;;6.33;3.63;;;;;;;8.91;100.00;97741.47;4963412;28;20236;-84
2024/03/15 01:18:50;;;;;;;3.90;3.33;;;;;;;8.86;100.00;97753.25;4962803;28;20206;-84
2024/03/15 01:21:17;;;;;;;5.30;3.67;;;;;;;8.89;100.00;97746.03;4963153;28;20234;-84
2024/03/15 01:23:43;;;;;;;5.67;4.00;;;;;;;8.94;100.00;97743.06;4962476;28;20228;-84
2024/03/15 01:26:11;;;;;;;4.83;3.90;;;;;;;8.91;100.00;97736.19;4962689;28;20209;-84
2024/03/15 01:28:39;;;;;;;6.10;3.80;;;;;;;8.94;100.00;97741.25;4963320;28;20571;-84
2024/03/15 01:31:06;;;;;;;4.67;3.60;;;;;;;8.95;100.00;97736.84;4962843;28;20797;-85
2024/03/15 01:33:33;;;;;;;5.90;3.83;;;;;;;8.93;100.00;97728.19;4963595;28;20285;-84
2024/03/15 01:35:59;;;;;;;6.30;3.43;;;;;;;8.95;100.00;97726.28;4963219;28;20234;-84
2024/03/15 01:38:26;;;;;;;4.30;3.23;;;;;;;8.95;100.00;97721.03;4962585;28;20216;-83
2024/03/15 01:40:52;;;;;;;4.33;3.13;;;;;;;8.96;100.00;97725.34;4962812;28;20428;-84
2024/03/15 01:43:19;;;;;;;4.63;3.30;;;;;;;8.99;100.00;97717.25;4962581;28;20213;-83
2024/03/15 01:45:47;;;;;;;4.37;3.23;;;;;;;9.00;100.00;97716.28;4962818;28;20213;-84
2024/03/15 01:48:14;;;;;;;3.30;3.00;;;;;;;8.99;100.00;97727.78;4963049;28;20217;-84
2024/03/15 01:50:40;;;;;;;5.13;3.27;;;;;;;8.96;100.00;97720.06;4962378;28;20740;-83
2024/03/15 01:53:07;;;;;;;3.53;3.03;;;;;;;8.99;100.00;97717.25;4963627;28;20220;-83
2024/03/15 01:55:33;;;;;;;4.47;2.97;;;;;;;9.04;100.00;97723.00;4962975;28;20237;-84
2024/03/15 01:58:00;;;;;;;4.40;3.17;;;;;;;9.04;100.00;97710.69;4963186;28;20213;-83
2024/03/15 02:00:27;;;;;;;3.97;3.17;;;;;;;9.06;100.00;97719.31;4962921;28;20285;-85
2024/03/15 02:02:56;;;;;;;5.13;3.43;;;;;;;9.02;100.00;97715.22;4962910;28;20221;-85
2024/03/15 02:05:23;;;;;;;4.53;3.33;;;;;;;8.99;100.00;97717.25;4963639;28;20207;-83
2024/03/15 02:07:50;;;;;;;4.07;3.07;;;;;;;8.95;100.00;97721.03;4963974;28;20214;-84
2024/03/15 02:10:17;;;;;;;4.37;3.17;;;;;;;8.98;100.00;97710.25;4963857;28;20236;-84
2024/03/15 02:12:43;;;;;;;5.70;3.00;;;;;;;8.96;100.00;97722.69;4965788;28;20218;-84
2024/03/15 02:15:10;;;;;;;7.07;3.33;;;;;;;8.95;100.00;97718.38;4966310;28;20239;-84
2024/03/15 02:17:37;;;;;;;4.30;3.40;;;;;;;8.91;100.00;97715.13;4962450;28;20210;-84
2024/03/15 02:20:06;;;;;;;4.37;3.50;;;;;;;8.85;100.00;97722.59;4960723;28;20210;-84
2024/03/15 02:22:32;;;;;;;4.87;3.13;;;;;;;8.77;100.00;97714.38;4960485;28;20221;-84
2024/03/15 02:24:59;;;;;;;4.63;3.60;;;;;;;8.70;100.00;97711.31;4960564;28;20221;-84
2024/03/15 02:27:28;;;;;;;4.83;3.43;;;;;;;8.66;100.00;97719.53;4960917;28;20683;-84
2024/03/15 02:29:55;;;;;;;5.53;3.50;;;;;;;8.61;100.00;97725.13;4961927;28;20217;-84
2024/03/15 02:32:23;;;;;;;4.30;3.30;;;;;;;8.58;100.00;97713.94;4961626;28;20323;-84
2024/03/15 02:34:51;;;;;;;5.37;3.80;;;;;;;8.56;100.00;97721.13;4961798;28;20218;-84
2024/03/15 02:37:18;;;;;;;5.77;3.57;;;;;;;8.53;100.00;97724.81;4967143;28;20214;-84
2024/03/15 02:39:46;;;;;;;6.47;3.67;;;;;;;8.52;100.00;97722.28;4967760;28;20214;-84
2024/03/15 02:42:12;;;;;;;7.27;4.13;;;;;;;8.53;100.00;97718.69;4967685;28;20238;-84
2024/03/15 02:44:39;;;;;;;4.90;3.60;;;;;;;8.51;100.00;97720.59;4967971;28;20296;-84
2024/03/15 02:47:06;;;;;;;4.57;3.30;;;;;;;8.46;100.00;97720.03;4968403;28;20227;-84
2024/03/15 02:49:33;;;;;;;5.07;3.53;;;;;;;8.43;100.00;97718.47;4968652;28;20269;-84
2024/03/15 02:51:59;;;;;;;4.50;3.70;;;;;;;8.45;100.00;97726.25;4967480;28;20245;-84
2024/03/15 02:54:26;;;;;;;5.53;3.73;;;;;;;8.43;100.00;97715.81;4967788;28;20218;-84
2024/03/15 02:56:53;;;;;;;4.77;3.40;;;;;;;8.37;100.00;97731.19;4968591;28;20231;-84
2024/03/15 02:59:20;;;;;;;4.83;3.27;;;;;;;8.35;100.00;97735.72;4967790;28;20657;-83
2024/03/15 03:01:47;;;;;;;4.33;3.40;;;;;;;8.33;100.00;97737.63;4967456;28;20618;-83
2024/03/15 03:04:13;;;;;;;5.13;3.27;;;;;;;8.31;100.00;97735.06;4967854;28;20217;-83
2024/03/15 03:06:42;;;;;;;4.03;3.07;;;;;;;8.32;100.00;97731.50;4966721;28;20319;-83
2024/03/15 03:09:09;;;;;;;5.90;3.67;;;;;;;8.37;100.00;97731.19;4967814;28;20232;-83
2024/03/15 03:11:36;;;;;;;6.47;3.83;;;;;;;8.42;100.00;97732.56;4966923;28;20246;-83
2024/03/15 03:14:04;;;;;;;4.70;3.50;;;;;;;8.43;100.00;97736.91;4967530;28;20267;-83
2024/03/15 03:16:33;;;;;;;6.20;3.87;;;;;;;8.40;100.00;97737.06;4953190;28;20289;-83
2024/03/15 03:19:00;;;;;;;5.80;3.70;;;;;;;8.42;100.00;97742.25;4967680;28;20208;-86
2024/03/15 03:21:27;;;;;;;5.53;3.57;;;;;;;8.39;100.00;97742.47;4967437;28;20296;-83
2024/03/15 03:23:56;;;;;;;5.00;3.90;;;;;;;8.36;100.00;97737.41;4967555;28;20221;-85
2024/03/15 03:26:23;;;;;;;4.93;3.57;;;;;;;8.32;100.00;97746.47;4967199;28;20206;-84
2024/03/15 03:28:50;;;;;;;6.00;3.60;;;;;;;8.29;100.00;97746.66;4967303;28;20227;-84
2024/03/15 03:31:17;;;;;;;5.03;4.00;;;;;;;8.24;100.00;97754.00;4966609;28;20233;-86
2024/03/15 03:33:43;;;;;;;4.63;3.30;;;;;;;8.19;100.00;97750.78;4966954;28;20244;-83
2024/03/15 03:36:11;;;;;;;4.03;3.40;;;;;;;8.16;100.00;97745.75;4967010;28;20256;-84
2024/03/15 03:38:39;;;;;;;5.13;3.60;;;;;;;8.17;100.00;97748.28;4967171;28;20612;-83
2024/03/15 03:41:06;;;;;;;6.17;4.30;;;;;;;8.18;100.00;97751.75;4967287;28;20315;-84
2024/03/15 03:43:33;;;;;;;7.80;4.33;;;;;;;8.17;100.00;97750.06;4967827;28;20705;-83
2024/03/15 03:45:59;;;;;;;5.80;4.37;;;;;;;8.19;100.00;97745.53;4967557;28;20293;-83
2024/03/15 03:48:26;;;;;;;5.70;3.93;;;;;;;8.21;100.00;97748.97;4963511;28;20223;-84
2024/03/15 03:50:53;;;;;;;5.87;3.77;;;;;;;8.24;100.00;97749.59;4963977;28;20236;-84
2024/03/15 03:53:20;;;;;;;5.47;4.13;;;;;;;8.27;100.00;97748.56;4964197;28;20706;-84
2024/03/15 03:55:46;;;;;;;8.17;3.60;;;;;;;8.32;100.00;97751.72;4963522;28;20293;-84
2024/03/15 03:58:13;;;;;;;5.70;4.07;;;;;;;8.29;100.00;97747.50;4963669;28;20474;-84
2024/03/15 04:00:40;;;;;;;5.23;3.53;;;;;;;8.32;100.00;97739.38;4962985;28;20236;-84
2024/03/15 04:03:06;;;;;;;4.80;3.47;;;;;;;8.38;100.00;97743.44;4963711;28;20683;-84
2024/03/15 04:05:33;;;;;;;5.83;4.00;;;;;;;8.42;100.00;97755.41;4963616;28;20215;-84
2024/03/15 04:08:02;;;;;;;4.80;3.60;;;;;;;8.44;100.00;97756.19;4963200;28;20220;-84
2024/03/15 04:10:30;;;;;;;5.37;3.63;;;;;;;8.45;100.00;97752.59;4963615;28;20327;-84
2024/03/15 04:12:57;;;;;;;6.13;4.00;;;;;;;8.47;100.00;97748.91;4964434;28;20245;-84
2024/03/15 04:15:24;;;;;;;4.50;3.90;;;;;;;8.50;100.00;97745.25;4963570;28;20217;-84
2024/03/15 04:17:51;;;;;;;4.27;3.43;;;;;;;8.50;100.00;97745.25;4963943;28;20213;-84
2024/03/15 04:20:18;;;;;;;5.20;3.60;;;;;;;8.52;100.00;97753.88;4963225;28;20218;-84
2024/03/15 04:22:45;;;;;;;3.93;3.53;;;;;;;8.55;100.00;97743.97;4962621;28;20697;-84
2024/03/15 04:25:12;;;;;;;4.07;3.23;;;;;;;8.56;100.00;97745.66;4963698;28;20216;-84
2024/03/15 04:27:39;;;;;;;3.83;2.97;;;;;;;8.57;100.00;97743.88;4961695;28;20218;-83
2024/03/15 04:30:13;;;;;;;4.17;3.17;;;;;;;8.58;100.00;97740.28;4960492;28;20316;-84
2024/03/15 04:32:40;;;;;;;5.13;3.30;;;;;;;8.60;100.00;97730.47;4962744;28;20538;-84
2024/03/15 04:35:07;;;;;;;5.00;3.47;;;;;;;8.61;100.00;97737.44;4961771;28;20545;-84
2024/03/15 04:37:34;;;;;;;4.40;3.43;;;;;;;8.66;100.00;97737.97;4961831;28;20614;-85
2024/03/15 04:40:00;;;;;;;4.47;3.43;;;;;;;8.66;100.00;97741.47;4961538;28;20218;-84
2024/03/15 04:42:31;;;;;;;4.20;3.60;;;;;;;8.67;100.00;97747.56;4961431;28;20214;-84
2024/03/15 04:45:02;;;;;;;5.13;3.43;;;;;;;8.68;100.00;97743.97;4962303;28;20215;-84
2024/03/15 04:47:29;;;;;;;4.97;3.50;;;;;;;8.67;100.00;97752.81;4962458;28;20249;-84
2024/03/15 04:49:56;;;;;;;4.87;3.43;;;;;;;8.67;100.00;97752.81;4961256;28;20216;-84
2024/03/15 04:52:23;;;;;;;6.50;3.70;;;;;;;8.63;100.00;97752.19;4960748;28;20231;-84
2024/03/15 04:54:49;;;;;;;4.80;3.57;;;;;;;8.60;100.00;97762.09;4961463;28;20213;-84
2024/03/15 04:57:18;;;;;;;7.00;4.50;;;;;;;8.60;100.00;97751.56;4962066;28;20247;-84
2024/03/15 04:59:45;;;;;;;5.17;3.67;;;;;;;8.57;100.00;97749.97;4961894;28;20214;-84
2024/03/15 05:02:12;;;;;;;6.83;3.90;;;;;;;8.62;100.00;97749.69;4961676;28;20790;-84
2024/03/15 05:04:39;;;;;;;4.27;3.40;;;;;;;8.63;100.00;97757.47;4961580;28;20267;-84
2024/03/15 05:07:05;;;;;;;5.43;3.90;;;;;;;8.58;100.00;97756.09;4961783;28;20405;-84
2024/03/15 05:09:32;;;;;;;5.00;3.80;;;;;;;8.56;100.00;97761.47;4961571;28;20559;-84
2024/03/15 05:11:59;;;;;;;4.67;3.30;;;;;;;8.53;100.00;97766.94;4961288;28;20233;-84
2024/03/15 05:14:25;;;;;;;4.93;3.13;;;;;;;8.55;100.00;97764.19;4961100;28;20213;-84
2024/03/15 05:16:55;;;;;;;5.10;3.07;;;;;;;8.50;100.00;97766.31;4961005;28;20243;-84
2024/03/15 05:19:22;;;;;;;5.13;3.37;;;;;;;8.47;100.00;97769.13;4961343;28;20215;-84
2024/03/15 05:21:49;;;;;;;5.50;3.37;;;;;;;8.42;100.00;97774.72;4960865;28;20232;-84
2024/03/15 05:24:16;;;;;;;4.80;2.90;;;;;;;8.43;100.00;97780.81;4961318;28;20326;-84
2024/03/15 05:26:42;;;;;;;4.57;3.20;;;;;;;8.42;100.00;97779.13;4951735;28;360075;-84
2024/03/15 05:29:09;;;;;;;4.50;3.47;;;;;;;8.34;100.00;97784.06;4962270;28;20259;-84
2024/03/15 05:31:36;;;;;;;4.57;2.80;;;;;;;8.26;100.00;97784.56;4961799;28;20237;-84
2024/03/15 05:34:07;;;;;;;5.73;3.60;;;;;;;8.18;100.00;97785.97;4962605;28;20210;-84
2024/03/15 05:36:34;;;;;;;5.83;3.70;;;;;;;8.15;100.00;97792.25;4963224;28;20231;-84
2024/03/15 05:39:01;;;;;;;7.23;4.27;;;;;;;8.09;100.00;97797.09;4962240;28;20636;-84
2024/03/15 05:41:28;;;;;;;6.80;3.80;;;;;;;8.00;100.00;97792.41;4962855;28;20237;-83
2024/03/15 05:43:54;;;;;;;5.63;3.80;;;;;;;7.98;100.00;97800.44;4962077;28;20559;-84
2024/03/15 05:46:21;;;;;;;4.77;3.90;;;;;;;7.95;100.00;97802.41;4962287;28;20206;-84
2024/03/15 05:48:48;;;;;;;5.67;4.03;;;;;;;7.90;100.00;97802.69;4961938;28;20217;-84
2024/03/15 05:51:15;;;;;;;4.90;3.83;;;;;;;7.89;100.00;97808.06;4961686;28;20237;-84
2024/03/15 05:53:41;;;;;;;7.10;4.13;;;;;;;7.87;100.00;97815.19;4961648;28;20209;-84
2024/03/15 05:56:09;;;;;;;7.00;3.90;;;;;;;7.86;100.00;97813.50;4962184;28;20240;-84
2024/03/15 05:58:35;;;;;;;4.23;3.77;;;;;;;7.91;100.00;97819.31;4962370;28;20213;-84
2024/03/15 06:01:03;;;;;;;5.47;3.67;;;;;;;7.93;100.00;97820.91;4963169;28;20232;-84
2024/03/15 06:03:30;;;;;;;6.77;3.90;;;;;;;8.05;100.00;97816.66;4963735;28;20208;-84
2024/03/15 06:05:56;;;;;;;5.43;3.90;;;;;;;8.25;100.00;97818.88;4963612;28;20267;-84
2024/03/15 06:08:26;;;;;;;6.17;4.23;;;;;;;8.27;100.00;97817.00;4964047;28;20216;-84
2024/03/15 06:10:53;;;;;;;6.63;3.80;;;;;;;8.25;100.00;97821.50;4963379;28;20319;-84
2024/03/15 06:13:20;;;;;;;5.80;4.03;;;;;;;8.22;100.00;97819.94;4962989;28;20213;-84
2024/03/15 06:15:46;;;;;;;4.77;3.43;;;;;;;8.20;100.00;97828.88;4963508;28;20221;-84
2024/03/15 06:18:15;;;;;;;6.17;3.90;;;;;;;8.15;100.00;97828.28;4965182;28;20228;-84
2024/03/15 06:20:41;;;;;;;5.80;3.80;;;;;;;8.16;100.00;97840.50;4969566;28;20255;-84
2024/03/15 06:23:08;;;;;;;5.60;3.60;;;;;;;8.12;100.00;97828.47;4967331;28;20224;-84
2024/03/15 06:25:35;;;;;;;4.90;3.87;;;;;;;8.10;100.00;97839.13;4961358;28;20221;-85
2024/03/15 06:28:06;;;;;;;5.13;3.53;;;;;;;8.09;100.00;97841.84;4960286;28;20214;-84
2024/03/15 06:30:34;;;;;;;5.47;4.00;;;;;;;8.08;100.00;97842.78;4961847;28;20430;-84
2024/03/15 06:33:02;;;;;;;5.43;3.97;;;;;;;8.10;100.00;97838.25;4962073;28;20219;-84
2024/03/15 06:35:30;;;;;;;6.20;3.77;;;;;;;8.12;100.00;97839.84;4960815;28;20213;-84
2024/03/15 06:38:07;;;;;;;5.93;3.63;;;;;;;8.17;100.00;97831.66;4960398;28;20239;-84
2024/03/15 06:40:45;;;;;;;7.93;4.23;;;;;;;8.22;100.00;97833.09;4961764;28;20232;-84
2024/03/15 06:43:13;;;;;;;6.43;3.90;;;;;;;8.25;100.00;97837.28;4961154;28;20216;-84
2024/03/15 06:45:52;;;;;;;7.87;3.93;;;;;;;8.30;100.00;97832.59;4959335;28;20226;-84
2024/03/15 06:48:22;;;;;;;5.03;3.40;;;;;;;8.29;100.00;97837.03;4961451;28;20299;-84
2024/03/15 06:50:50;;;;;;;6.87;3.50;;;;;;;8.34;100.00;97836.72;4959834;28;20374;-84
2024/03/15 06:53:17;;;;;;;5.20;4.00;;;;;;;8.36;100.00;97842.72;4959140;28;20321;-84
2024/03/15 06:55:44;;;;;;;5.87;3.63;;;;;;;8.39;100.00;97839.91;4959197;28;20300;-84
2024/03/15 06:58:11;;;;;;;6.63;4.30;;;;;;;8.40;100.00;97838.94;4959301;28;20239;-84
2024/03/15 07:00:38;;;;;;;4.43;3.50;;;;;;;8.45;100.00;97848.22;4959320;28;20231;-83
2024/03/15 07:03:07;;;;;;;5.57;4.20;;;;;;;8.47;100.00;97840.22;4959732;28;20221;-83
2024/03/15 07:05:34;;;;;;;8.10;4.20;;;;;;;8.54;100.00;97846.78;4960805;28;20214;-83
2024/03/15 07:08:00;;;;;;;8.07;4.60;;;;;;;8.65;100.00;97849.56;4959395;28;20406;-83
2024/03/15 07:10:27;;;;;;;6.73;4.93;;;;;;;8.72;100.00;97850.84;4959334;28;20259;-84
2024/03/15 07:12:54;;;;;;;6.83;4.87;;;;;;;8.84;100.00;97852.66;4959692;28;20697;-84
2024/03/15 07:15:21;;;;;;;4.77;3.73;;;;;;;8.89;100.00;97854.06;4960141;28;20213;-84
2024/03/15 07:17:48;;;;;;;6.13;4.23;;;;;;;9.03;100.00;97855.75;4960199;28;20235;-83
2024/03/15 07:20:14;;;;;;;6.50;4.23;;;;;;;9.11;100.00;97856.09;4959748;28;20214;-84
2024/03/15 07:22:41;;;;;;;8.37;4.97;;;;;;;9.22;100.00;97851.78;4961015;28;20233;-84
2024/03/15 07:25:10;;;;;;;6.87;3.67;;;;;;;9.37;100.00;97848.06;4963607;28;20209;-84
2024/03/15 07:27:37;;;;;;;6.47;4.10;;;;;;;9.49;100.00;97847.22;4963262;28;20247;-84
2024/03/15 07:30:05;;;;;;;4.93;3.60;;;;;;;9.62;100.00;97847.25;4965086;28;20213;-84
2024/03/15 07:32:31;;;;;;;3.73;3.20;;;;;;;9.74;100.00;97852.47;4965731;28;20268;-82
2024/03/15 07:34:58;;;;;;;4.00;3.27;;;;;;;9.88;100.00;97847.09;4970361;28;20302;-80
2024/03/15 07:37:25;;;;;;;4.53;3.20;;;;;;;10.05;100.00;97845.91;4971179;28;20237;-80
2024/03/15 07:39:53;;;;;;;5.13;3.30;;;;;;;10.24;100.00;97843.66;4972859;28;20243;-80
2024/03/15 07:42:19;;;;;;;4.20;3.10;;;;;;;10.35;100.00;97841.91;4973293;28;20238;-79
2024/03/15 07:44:48;;;;;;;3.50;2.80;;;;;;;10.53;100.00;97850.28;4972663;28;20226;-79
2024/03/15 07:47:15;;;;;;;4.57;2.70;;;;;;;10.73;100.00;97852.31;4972990;28;20663;-80
2024/03/15 07:49:42;;;;;;;3.93;2.73;;;;;;;10.84;100.00;97847.06;4972684;28;20217;-79
2024/03/15 07:52:08;;;;;;;4.03;2.90;;;;;;;10.98;100.00;97845.09;4971925;28;20235;-80
2024/03/15 07:54:35;;;;;;;4.23;2.80;;;;;;;11.13;100.00;97851.84;4967986;28;20255;-83
2024/03/15 07:57:02;;;;;;;3.47;2.60;;;;;;;11.33;100.00;97845.91;4966068;28;20231;-83
2024/03/15 07:59:28;;;;;;;4.47;2.60;;;;;;;11.45;100.00;97841.47;4967354;28;20222;-82
2024/03/15 08:01:55;;;;;;;3.50;2.70;;;;;;;11.56;100.00;97833.53;4971626;28;20287;-82
2024/03/15 08:04:22;;;;;;;3.30;2.60;;;;;;;11.69;100.00;97823.72;4968850;28;20214;-83
2024/03/15 08:06:49;;;;;;;2.73;2.20;;;;;;;11.81;100.00;97828.84;4968712;28;20289;-82
2024/03/15 08:09:18;;;;;;;3.07;2.33;;;;;;;11.93;100.00;97824.41;4967909;28;20211;-81
2024/03/15 08:11:45;;;;;;;3.20;2.40;;;;;;;12.04;100.00;97830.53;4955898;28;20222;-79
2024/03/15 08:14:13;;;;;;;4.50;2.70;;;;;;;12.19;100.00;97831.97;4939574;29;20679;-80
2024/03/15 08:16:41;;;;;;;3.27;2.47;;;;;;;12.30;100.00;97831.94;4939882;29;20299;-79
2024/03/15 08:19:08;;;;;;;4.23;2.50;;;;;;;12.42;100.00;97830.94;4940963;29;20681;-81
2024/03/15 08:21:35;;;;;;;3.47;2.27;;;;;;;12.51;100.00;97837.31;4945032;29;20285;-79
2024/03/15 08:24:04;;;;;;;3.33;2.30;;;;;;;12.61;99.64;97830.28;4943500;29;20811;-80
2024/03/15 08:26:31;;;;;;;2.70;2.30;;;;;;;12.79;98.78;97826.13;4946430;29;20310;-82
2024/03/15 08:28:58;;;;;;;4.60;3.00;;;;;;;12.88;96.84;97822.69;4947247;29;20278;-82
2024/03/15 08:31:25;;;;;;;3.00;2.10;;;;;;;12.97;96.07;97814.84;4946935;29;20238;-82
2024/03/15 08:33:52;;;;;;;3.53;2.53;;;;;;;13.04;95.03;97809.88;4943722;29;20580;-78
2024/03/15 08:36:18;;;;;;;4.93;2.63;;;;;;;13.14;92.60;97797.53;4944038;29;20294;-78
2024/03/15 08:38:45;;;;;;;3.53;2.47;;;;;;;13.20;92.62;97811.09;4944621;29;20486;-81
2024/03/15 08:41:12;;;;;;;2.83;2.17;;;;;;;13.31;93.70;97804.88;4943906;29;20645;-79
2024/03/15 08:43:38;;;;;;;4.00;2.20;;;;;;;13.43;91.79;97807.34;4945809;29;20215;-79
2024/03/15 08:46:05;;;;;;;2.97;2.30;;;;;;;13.58;91.87;97803.34;4945750;29;20583;-79
2024/03/15 08:48:32;;;;;;;5.27;2.20;;;;;;;13.65;92.16;97803.69;4945377;29;20213;-80
2024/03/15 08:50:58;;;;;;;5.43;2.80;;;;;;;13.72;90.20;97796.84;4946139;29;20232;-79
2024/03/15 08:53:25;;;;;;;5.10;2.67;;;;;;;13.85;85.96;97768.25;4945597;28;20213;-79
2024/03/15 08:55:52;;;;;;;3.47;2.30;;;;;;;14.09;87.31;97774.03;4944721;29;20869;-79
2024/03/15 08:58:19;;;;;;;4.73;2.27;;;;;;;14.16;86.67;97778.69;4946406;29;20232;-78
2024/03/15 09:00:48;;;;;;;3.00;2.07;;;;;;;14.22;87.37;97785.28;4945258;29;20245;-79
2024/03/15 09:03:14;;;;;;;2.27;1.80;;;;;;;14.32;87.03;97783.50;4946773;29;20557;-79
2024/03/15 09:05:41;;;;;;;3.67;1.90;;;;;;;14.42;82.33;97769.25;4945790;29;20211;-79
2024/03/15 09:08:11;;;;;;;2.80;1.70;;;;;;;14.48;82.02;97776.66;4943667;29;20572;-81
2024/03/15 09:10:37;;;;;;;1.83;1.70;;;;;;;14.70;81.91;97783.53;4943054;29;20232;-81
2024/03/15 09:13:04;;;;;;;4.03;1.73;;;;;;;14.84;82.90;97791.13;4943075;29;20223;-84
2024/03/15 09:15:33;;;;;;;2.30;1.80;;;;;;;14.96;81.55;97771.38;4944752;29;20221;-80
2024/03/15 09:18:00;;;;;;;1.67;1.37;;;;;;;15.08;80.21;97775.53;4946340;29;20235;-80
2024/03/15 09:20:33;;;;;;;2.47;1.50;;;;;;;15.14;79.06;97759.84;4945002;29;20248;-80
2024/03/15 09:23:01;;;;;;;2.57;1.70;;;;;;;15.32;79.71;97773.25;4945618;29;20216;-80
2024/03/15 09:25:29;;;;;;;1.73;1.40;;;;;;;15.48;79.21;97766.38;4945292;29;20665;-80
2024/03/15 09:27:57;;;;;;;1.77;1.40;;;;;;;15.75;78.29;97762.91;4946204;29;20221;-80
2024/03/15 09:30:29;;;;;;;1.90;1.47;;;;;;;15.92;77.63;97754.13;4945820;28;20242;-80
2024/03/15 09:32:56;;;;;;;2.83;1.33;;;;;;;16.08;75.92;97743.66;4947609;29;20238;-80
2024/03/15 09:35:23;;;;;;;4.40;1.70;;;;;;;16.31;74.42;97730.59;4946114;28;20214;-80
2024/03/15 09:37:51;;;;;;;3.33;1.57;;;;;;;16.54;71.61;97718.53;4945964;29;20242;-80
2024/03/15 09:40:18;;;;;;;3.70;1.43;;;;;;;16.91;72.12;97724.53;4945301;28;20222;-80
2024/03/15 09:42:45;;;;;;;2.17;1.53;;;;;;;17.14;70.79;97717.66;4946066;29;20213;-80
2024/03/15 09:45:12;;;;;;;1.30;1.20;;;;;;;17.21;70.61;97726.75;4944261;29;20464;-81
2024/03/15 09:47:40;;;;;;;1.80;1.47;;;;;;;17.14;67.08;97701.63;4941911;29;20233;-80
2024/03/15 09:50:11;;;;;;;2.17;1.20;;;;;;;16.98;66.38;97704.22;4938754;28;20659;-80
2024/03/15 09:52:38;;;;;;;1.30;1.20;;;;;;;16.79;67.75;97720.41;4941023;29;20258;-78
2024/03/15 09:55:05;;;;;;;1.50;1.30;;;;;;;16.68;68.26;97723.31;4940164;29;20211;-78
2024/03/15 09:57:31;;;;;;;1.60;1.03;;;;;;;16.54;70.07;97742.53;4942221;29;20234;-78
2024/03/15 09:59:59;;;;;;;2.07;1.00;;;;;;;16.46;70.00;97742.44;4942336;29;20214;-78
2024/03/15 10:02:26;;;;;;;1.73;0.80;;;;;;;16.50;68.80;97730.50;4941869;29;20290;-78
2024/03/15 10:04:53;;;;;;;1.00;0.80;;;;;;;16.44;70.43;97749.78;4942499;29;20211;-79
2024/03/15 10:07:20;;;;;;;5.97;0.93;;;;;;;16.33;72.06;97755.28;4942782;29;20307;-78
2024/03/15 10:09:48;;;;;;;1.33;0.97;;;;;;;16.31;71.73;97751.94;4942751;29;20222;-78
2024/03/15 10:12:14;;;;;;;0.73;0.73;;;;;;;16.16;72.49;97758.75;4942269;29;20231;-78
2024/03/15 10:14:41;;;;;;;1.60;0.70;;;;;;;16.03;74.99;97768.94;4939523;29;20214;-79
2024/03/15 10:17:09;;;;;;;1.67;1.10;;;;;;;15.91;75.34;97776.44;4936523;29;20218;-78
2024/03/15 10:19:36;;;;;;;1.53;0.90;;;;;;;15.62;77.35;97794.34;4937581;29;20211;-79
2024/03/15 10:22:03;;;;;;;2.30;0.80;;;;;;;15.46;79.03;97804.78;4941237;29;20234;-78
2024/03/15 10:24:30;;;;;;;0.90;0.80;;;;;;;15.34;82.37;97824.59;4941682;29;20269;-78
2024/03/15 10:26:56;;;;;;;2.03;1.07;;;;;;;15.17;87.46;97846.56;4941751;29;20221;-78
2024/03/15 10:29:23;;;;;;;0.80;0.80;;;;;;;15.00;90.60;97853.44;4941372;29;20238;-78
2024/03/15 10:31:50;;;;;;;2.53;0.90;;;;;;;14.90;93.06;97859.75;4940367;29;20234;-78
2024/03/15 10:34:16;;;;;;;1.77;0.90;;;;;;;14.89;91.96;97858.03;4938974;29;20216;-78
2024/03/15 10:36:43;;;;;;;1.27;1.00;;;;;;;14.81;95.81;97861.41;4939615;29;20313;-79
2024/03/15 10:39:12;;;;;;;1.33;0.90;;;;;;;14.81;98.27;97873.88;4939786;29;20240;-78
2024/03/15 10:41:39;;;;;;;1.00;0.80;;;;;;;14.81;98.71;97865.88;4941073;29;20268;-78
2024/03/15 10:44:05;;;;;;;1.00;0.80;;;;;;;14.83;99.97;97869.22;4941329;28;20226;-79
2024/03/15 10:46:32;;;;;;;1.10;0.80;;;;;;;14.90;97.30;97859.75;4943611;29;20243;-80
2024/03/15 10:48:59;;;;;;;2.37;0.97;;;;;;;14.94;94.59;97851.34;4942187;29;20216;-80
2024/03/15 10:51:26;;;;;;;2.17;0.83;;;;;;;15.01;93.46;97846.28;4942192;29;20236;-80
2024/03/15 10:53:52;;;;;;;0.87;0.70;;;;;;;15.07;90.47;97827.94;4943265;29;20286;-81
2024/03/15 10:56:19;;;;;;;0.97;0.70;;;;;;;15.14;89.86;97830.84;4941153;28;20214;-80
2024/03/15 10:58:46;;;;;;;0.80;0.80;;;;;;;15.20;88.37;97819.63;4948372;29;20244;-80
2024/03/15 11:01:13;;;;;;;0.70;0.70;;;;;;;15.22;87.88;97821.19;4947450;29;20240;-79
2024/03/15 11:03:41;;;;;;;0.87;0.73;;;;;;;15.27;84.68;97815.47;4949063;29;20224;-79
2024/03/15 11:06:07;;;;;;;0.90;0.80;;;;;;;15.30;84.07;97817.81;4946927;29;20237;-79
2024/03/15 11:08:34;;;;;;;1.20;0.90;;;;;;;15.23;84.50;97820.22;4947165;29;20309;-80
2024/03/15 11:11:01;;;;;;;0.73;0.73;;;;;;;15.31;85.41;97833.66;4946970;28;20641;-80
2024/03/15 11:13:32;;;;;;;1.23;1.13;;;;;;;15.32;85.01;97823.84;4946466;29;20222;-80
2024/03/15 11:15:58;;;;;;;1.77;1.10;;;;;;;15.46;84.87;97823.44;4946905;29;20703;-80
2024/03/15 11:18:25;;;;;;;1.00;0.77;;;;;;;15.64;79.57;97782.56;4946462;29;20234;-77
2024/03/15 11:20:52;;;;;;;1.13;0.70;;;;;;;15.71;75.67;97777.50;4943902;29;20247;-79
2024/03/15 11:23:18;;;;;;;1.33;0.93;;;;;;;15.64;75.93;97782.56;4943443;29;20265;-81
2024/03/15 11:25:54;;;;;;;1.03;0.93;;;;;;;15.72;76.26;97795.19;4943581;29;20228;-83
2024/03/15 11:28:21;;;;;;;1.93;1.00;;;;;;;15.88;78.08;97811.41;4943433;29;20253;-82
2024/03/15 11:30:48;;;;;;;1.43;0.93;;;;;;;16.02;76.41;97790.41;4942921;29;20245;-83